Mid Calder, United Kingdom
Current Conditions -  °F | °C
As of 7:20 PM on Friday 28 Nov 2014 (Local Time) from EGPH Reporting Station
Broken Clouds Broken Clouds  
Wind Chill: 44°   Ceiling: 2800
Heat Index: 48°   Visibility: 6mi
Dew Point: 48°   Wind: 9mph
Humidity: 100%   Direction: 70°ENE
Pressure: 29.85"   Gusts: NA
Location:  55.89°N, 3.48°W
Report Text: EGPH 281920Z 07008KT 9999 SCT013 BKN028 09/09 Q1011
Loading
Personal Weather Stations






























Interactive Weather Map New forecast layout! Learn more

10-Day Weather Forecast

Advertisements
Track Severe Weather on mobile